Riverside, CA (92502)

1:58 PM PDT on October 31, 2014 (GMT -0700)
WR6G Magnolia Center | Change Station
CLOSE
Current Station
Personal Weather Station
Location: Riverside, CA
Elevation: 820 ft
Nearby Weather Stations

Elev 820 ft 33.95 °N, 117.41 °W | Updated 22 seconds ago

Overcast
Overcast
73.2 °F
Feels Like 77 °F
N
0.0
Wind Variable Wind from North
Gusts 0.0 mph

Today
High -- | Low -- °F
--% Chance of Precip.
Yesterday
High -- | Low -- °F
Precip. -- in
7:08 AM 5:57 PM
First Quarter, 59% visible
Pressure 29.85 in
Visibility 10.0 miles
Clouds Mostly Cloudy 3600 ft
Heat Index 77 °F
Dew Point 58 °F
Humidity 58%
Rainfall 0.00 in
Snow Depth Not available.
UV 3 out of 12
Pollen 3.10 out of 12
Air Quality Not available.
Flu Activity Not available.
METAR KRAL 312053Z 00000KT 10SM BKN036 22/12 A2989 RMK AO2 SLP108 T02170117 58032

More Conditions Fewer Conditions

Pressure 29.85 in
Visibility 10.0 miles
Clouds Mostly Cloudy 3600 ft
Heat Index 77 °F
Dew Point 58 °F
Humidity 58%
Rainfall 0.00 in
Snow Depth Not available.
UV 3 out of 12
Pollen 3.10 out of 12
Air Quality Not available.
Flu Activity Not available.
METAR KRAL 312053Z 00000KT 10SM BKN036 22/12 A2989 RMK AO2 SLP108 T02170117 58032

More Conditions Fewer Conditions

10-Day Weather Forecast

Almanac

Astronomy

Oct. 31, 2014 Rise Set
Actual Time
Civil Twilight
Nautical Twilight
Astronomical Twilight
Moon
Length of Visible Light
Length of Day
Tomorrow will be .
, % of the Moon is Illuminated

Today's Extremes

State Highs State Lows

Community

WunderPhotos

Upload Photos

1,766,734 photos uploaded!

WunderBlogs® & News

Nearby

Air Quality

  Air Quality AQ Index Pollutant
Not available.

Snow Depth

Station Depth Elevation

Earthquake Activity

City Distance Mag. Time & Date
Minimum magnitude displayed is 2.5.

Coastal Water Temperatures

Place Temperature

Nearby Weather Stations